logo
Search for airport 
image banner adimage banner adimage banner ad
image banner ad

TFFR - Pointe A Pitre Le Raizet

Located in Pointe A Pitre (Guadeloupe), Guadeloupe

ICAO - TFFR, IATA - PRP

Data provided by Airmate  

General information

Coordinates: N16°15'51" W61°31'33"
Elevation is 35 feet MSL.
Magnetic variation is -14.92° East
Rated:
View ratings:
[VIEW]
View others Airports in (unassigned)

Operational data

Special qualification required
Current time UTC:
Current local time:
Weather
METAR: TFFR 241830Z AUTO 13011KT 100V170 9999 FEW043 31/22 Q1014 NOSIG
TAF: TAF TFFR 241700Z 2418/2518 12014KT 9999 SCT030 TEMPO 2421/2503 4000 SHRA BKN020TCU PROB30 TEMPO 2423/2502 2000 SHRA SCT010CB BKN018TCU BECMG 2500/2503 VRB03KT BECMG 2510/2512 11013KT
View NOTAMs / SUP AIP / TFR affecting this airport [VIEW]
Communications frequencies: [VIEW]

Runways:

RWY identifierQFULength (ft)Width (ft)SurfaceLDA (ft)
12101°10266148ASPH9373
30281°10266148ASPH9085

Airport contact information

Address: Pointe A Pitre (Guadeloupe) Guadeloupe

Other aviation service providers

Aviation club (not for profit)

Aéroclub de Guadeloupe

Aéroclub de Guadeloupe

Aéroclub de l'Aviation Civile et de Guadeloupe

Aéroclub de l'Aviation Civile et de Guadeloupe

Les Ailes Guadeloupéennes

Les Ailes Guadeloupéennes
Rated:
View ratings:
[VIEW]

Satellite view of TFFR